Time;durP1;ratioP1;P1;durP2;ratioP2;P2;SDS_P1;SDS_P2;PMS_P1;PMS_P2;Temp;Humidity;BMP_temperature;BMP_pressure;BME280_temperature;BME280_humidity;BME280_pressure;Samples;Min_cycle;Max_cycle;Signal;HPM_P1;HPM_P2
2021/12/16 00:02:54;;;;;;;4.65;4.25;;;19.00;46.00;;;;;;5035022;28;20181;-56
2021/12/16 00:05:39;;;;;;;5.57;4.72;;;18.90;46.10;;;;;;5033575;28;20207;-56
2021/12/16 00:08:16;;;;;;;5.55;4.43;;;18.90;46.00;;;;;;5034677;28;20303;-57
2021/12/16 00:10:51;;;;;;;5.15;4.57;;;18.90;46.00;;;;;;5034810;28;20207;-57
2021/12/16 00:30:07;;;;;;;5.25;4.75;;;18.70;46.80;;;;;;5034323;28;20540;-57
2021/12/16 00:32:52;;;;;;;4.60;4.20;;;18.70;46.70;;;;;;5032945;28;20208;-56
2021/12/16 00:35:20;;;;;;;4.65;4.25;;;18.70;46.20;;;;;;5033043;28;20237;-57
2021/12/16 00:37:47;;;;;;;5.30;4.80;;;18.70;46.20;;;;;;5033590;28;20266;-57
2021/12/16 00:40:15;;;;;;;4.35;4.05;;;18.60;46.20;;;;;;5033074;28;20207;-57
2021/12/16 00:42:50;;;;;;;5.10;4.65;;;18.60;46.20;;;;;;5034081;28;20200;-57
2021/12/16 00:48:20;;;;;;;4.35;3.95;;;18.60;46.20;;;;;;5027464;28;20712;-56
2021/12/16 00:56:17;;;;;;;4.55;4.15;;;18.60;46.20;;;;;;5032554;28;20184;-57
2021/12/16 00:58:51;;;;;;;4.45;4.05;;;18.50;46.20;;;;;;5049094;28;20247;-57
2021/12/16 01:01:32;;;;;;;4.97;4.57;;;18.50;46.30;;;;;;5049197;28;20242;-57
2021/12/16 01:04:23;;;;;;;4.38;4.07;;;18.50;46.30;;;;;;5049456;28;20192;-56
2021/12/16 01:07:13;;;;;;;4.57;4.18;;;18.50;46.30;;;;;;5032302;28;20219;-57
2021/12/16 01:34:53;;;;;;;4.68;4.30;;;18.30;46.30;;;;;;5032292;28;20187;-65
2021/12/16 01:40:17;;;;;;;4.22;3.83;;;18.40;46.40;;;;;;4989991;28;20261;-65
2021/12/16 01:46:09;;;;;;;4.75;4.35;;;18.30;46.40;;;;;;5024866;28;20200;-65
2021/12/16 01:51:33;;;;;;;4.57;4.18;;;18.30;46.60;;;;;;5023478;28;20309;-66
2021/12/16 01:54:30;;;;;;;4.85;4.20;;;18.30;46.40;;;;;;5032373;28;20706;-66
2021/12/16 01:57:06;;;;;;;4.15;3.85;;;18.20;46.60;;;;;;5031913;28;20554;-66
2021/12/16 01:59:35;;;;;;;4.57;4.18;;;18.20;46.60;;;;;;5031936;28;20280;-66
2021/12/16 02:02:13;;;;;;;4.40;4.10;;;18.20;46.60;;;;;;5031134;28;20671;-65
2021/12/16 02:05:04;;;;;;;4.80;4.40;;;18.20;46.70;;;;;;5031989;28;20192;-65
2021/12/16 02:07:49;;;;;;;4.50;4.10;;;18.20;46.70;;;;;;5048203;28;20214;-65
2021/12/16 02:10:18;;;;;;;4.35;4.05;;;18.20;46.70;;;;;;5031524;28;20192;-66
2021/12/16 02:12:56;;;;;;;4.80;4.40;;;18.10;46.50;;;;;;5031651;28;20223;-65
2021/12/16 02:29:26;;;;;;;4.28;3.88;;;18.10;46.70;;;;;;5031319;28;20269;-66
2021/12/16 02:31:59;;;;;;;4.50;4.15;;;18.10;46.80;;;;;;5031363;28;20290;-65
2021/12/16 02:34:41;;;;;;;4.25;3.92;;;18.10;46.70;;;;;;5031486;28;20188;-65
2021/12/16 02:37:17;;;;;;;4.25;3.95;;;18.00;46.70;;;;;;5031277;28;20196;-66
2021/12/16 02:39:46;;;;;;;4.38;4.03;;;18.00;46.70;;;;;;5031546;28;20196;-65
2021/12/16 02:42:17;;;;;;;4.80;4.40;;;18.00;46.60;;;;;;5047709;28;20621;-66
2021/12/16 02:48:28;;;;;;;4.72;4.32;;;18.00;46.60;;;;;;5031121;28;20291;-66
2021/12/16 02:50:30;;;;;;;5.50;5.00;;;18.00;46.60;;;;;;5031278;28;20274;-65
2021/12/16 02:52:58;;;;;;;4.18;3.88;;;18.00;46.50;;;;;;5031042;28;20266;-65
2021/12/16 02:55:25;;;;;;;5.38;4.88;;;18.00;46.70;;;;;;5047647;28;20196;-65
2021/12/16 02:57:59;;;;;;;4.95;4.55;;;17.90;46.60;;;;;;5030951;28;20284;-66
2021/12/16 03:00:27;;;;;;;4.70;4.30;;;17.90;46.70;;;;;;5030982;28;20202;-65
2021/12/16 03:02:54;;;;;;;4.47;4.13;;;17.90;46.50;;;;;;5031242;28;20219;-65
2021/12/16 03:05:21;;;;;;;4.60;4.28;;;18.00;46.60;;;;;;5031028;28;20196;-65
2021/12/16 03:07:49;;;;;;;4.88;4.47;;;17.90;46.60;;;;;;5030887;28;20216;-65
2021/12/16 03:13:03;;;;;;;5.38;4.88;;;17.90;46.70;;;;;;5031538;28;20224;-65
2021/12/16 03:18:22;;;;;;;4.85;4.35;;;17.90;46.50;;;;;;5035590;28;20212;-64
2021/12/16 03:20:53;;;;;;;4.95;4.55;;;17.90;46.70;;;;;;5072431;22;20232;-67
2021/12/16 03:23:38;;;;;;;5.18;4.78;;;17.90;46.60;;;;;;5034438;28;20192;-67
2021/12/16 03:29:08;;;;;;;5.25;4.75;;;17.80;46.50;;;;;;5033552;28;20227;-66
2021/12/16 03:35:01;;;;;;;5.40;5.00;;;17.90;46.70;;;;;;5014715;28;20333;-67
2021/12/16 03:37:28;;;;;;;5.38;4.97;;;17.80;46.50;;;;;;5050861;28;20306;-66
2021/12/16 03:39:57;;;;;;;5.18;4.78;;;17.80;46.50;;;;;;5034189;28;20242;-67
2021/12/16 03:42:31;;;;;;;5.50;5.05;;;17.80;46.70;;;;;;5050857;28;20188;-67
2021/12/16 03:45:05;;;;;;;5.30;4.90;;;17.80;46.70;;;;;;5050750;28;20200;-67
2021/12/16 03:47:36;;;;;;;5.25;4.85;;;17.80;46.70;;;;;;5033999;28;20219;-67
2021/12/16 03:50:06;;;;;;;5.15;4.65;;;17.80;46.60;;;;;;5033762;28;20291;-67
2021/12/16 03:52:34;;;;;;;5.30;4.82;;;17.80;46.80;;;;;;5050307;28;20212;-67
2021/12/16 03:55:01;;;;;;;4.75;4.38;;;17.70;46.60;;;;;;5033829;28;20196;-67
2021/12/16 03:57:32;;;;;;;5.50;5.00;;;17.80;46.70;;;;;;5035074;28;20718;-67
2021/12/16 04:00:00;;;;;;;4.70;4.30;;;17.70;46.50;;;;;;5034070;28;20270;-67
2021/12/16 04:02:46;;;;;;;5.30;4.90;;;17.70;46.60;;;;;;5035498;28;20191;-67
2021/12/16 04:05:18;;;;;;;5.55;5.05;;;17.70;46.60;;;;;;5034014;28;20740;-67
2021/12/16 04:07:48;;;;;;;5.93;5.43;;;17.70;46.50;;;;;;5034118;28;20220;-67
2021/12/16 04:10:23;;;;;;;5.82;4.82;;;17.70;46.60;;;;;;5050365;28;20262;-67
2021/12/16 04:12:53;;;;;;;5.38;4.88;;;17.70;46.80;;;;;;5033459;28;20212;-67
2021/12/16 04:15:20;;;;;;;5.43;5.03;;;17.70;46.80;;;;;;5050044;28;20196;-67
2021/12/16 04:17:51;;;;;;;7.15;6.45;;;17.70;46.80;;;;;;5033769;28;20220;-67
2021/12/16 04:20:19;;;;;;;6.93;6.32;;;17.70;46.80;;;;;;5033355;28;20228;-67
2021/12/16 04:22:46;;;;;;;6.20;5.70;;;17.70;46.70;;;;;;5033566;28;20283;-67
2021/12/16 04:25:19;;;;;;;6.90;6.30;;;17.70;46.60;;;;;;5032573;28;20193;-67
2021/12/16 04:27:47;;;;;;;6.55;5.95;;;17.70;46.70;;;;;;5033429;28;20720;-67
2021/12/16 04:30:17;;;;;;;5.70;5.20;;;17.70;46.50;;;;;;5036582;28;20219;-67
2021/12/16 04:32:45;;;;;;;7.18;6.53;;;17.70;46.50;;;;;;5036969;28;20216;-67
2021/12/16 04:35:12;;;;;;;7.35;6.63;;;17.70;46.50;;;;;;5036490;28;20196;-67
2021/12/16 04:37:42;;;;;;;6.53;5.93;;;17.70;46.30;;;;;;5050586;28;20300;-68
2021/12/16 04:40:10;;;;;;;6.88;6.28;;;17.80;46.30;;;;;;5033294;28;20262;-67
2021/12/16 04:42:41;;;;;;;6.70;6.07;;;17.80;46.20;;;;;;5032722;28;20184;-67
2021/12/16 04:45:10;;;;;;;6.70;6.10;;;17.80;46.20;;;;;;5032661;28;20742;-67
2021/12/16 04:47:40;;;;;;;6.50;5.90;;;17.80;46.30;;;;;;5049470;28;20219;-67
2021/12/16 04:50:09;;;;;;;6.78;6.18;;;17.80;46.20;;;;;;5032708;28;20204;-67
2021/12/16 04:52:36;;;;;;;6.88;6.28;;;17.80;46.20;;;;;;5033068;28;20220;-67
2021/12/16 04:55:05;;;;;;;6.90;6.30;;;17.90;46.10;;;;;;5032962;28;20203;-67
2021/12/16 04:57:32;;;;;;;6.35;5.75;;;17.80;46.20;;;;;;5032713;28;20216;-67
2021/12/16 05:00:00;;;;;;;7.03;6.38;;;17.80;46.00;;;;;;5032486;28;20196;-67
2021/12/16 05:02:29;;;;;;;5.20;4.70;;;17.80;45.90;;;;;;5049193;28;20204;-67
2021/12/16 05:05:26;;;;;;;6.97;6.38;;;17.80;46.10;;;;;;5032670;28;20278;-67
2021/12/16 05:07:54;;;;;;;7.07;6.47;;;17.90;46.00;;;;;;5032658;28;20346;-67
2021/12/16 05:10:27;;;;;;;5.10;4.70;;;17.90;46.10;;;;;;5032601;28;20200;-67
2021/12/16 05:13:05;;;;;;;4.85;4.43;;;17.80;46.20;;;;;;5032645;28;20303;-67
2021/12/16 05:15:36;;;;;;;5.68;5.18;;;17.80;46.20;;;;;;5032709;28;20207;-67
2021/12/16 05:18:05;;;;;;;5.03;4.60;;;17.80;46.20;;;;;;5032830;28;20302;-67
2021/12/16 05:20:38;;;;;;;4.65;4.25;;;17.80;46.30;;;;;;5032356;28;20218;-67
2021/12/16 05:26:05;;;;;;;5.50;4.10;;;17.90;46.30;;;;;;5032732;28;20322;-67
2021/12/16 05:28:33;;;;;;;5.03;4.63;;;17.80;46.10;;;;;;5033590;28;20211;-67
2021/12/16 05:31:00;;;;;;;5.75;5.25;;;17.90;46.70;;;;;;5049348;28;20679;-67
2021/12/16 05:33:29;;;;;;;4.45;4.07;;;17.90;45.80;;;;;;5032471;28;20220;-67
2021/12/16 05:35:58;;;;;;;4.88;4.47;;;17.90;45.80;;;;;;5032623;28;20200;-67
2021/12/16 05:38:27;;;;;;;5.50;5.00;;;18.00;45.80;;;;;;5032411;28;20220;-67
2021/12/16 05:40:54;;;;;;;4.40;4.00;;;18.00;45.60;;;;;;5032471;28;20200;-67
2021/12/16 05:43:28;;;;;;;4.53;4.13;;;18.00;45.60;;;;;;5048892;28;20196;-67
2021/12/16 05:45:56;;;;;;;4.70;4.30;;;18.00;45.60;;;;;;5032436;28;20263;-67
2021/12/16 05:48:24;;;;;;;4.43;4.05;;;18.10;45.60;;;;;;5032296;28;20216;-67
2021/12/16 05:50:56;;;;;;;4.57;4.22;;;18.10;45.60;;;;;;5032038;28;20200;-67
2021/12/16 05:53:25;;;;;;;4.70;4.30;;;18.10;45.60;;;;;;5032156;28;20266;-67
2021/12/16 05:55:53;;;;;;;5.32;4.82;;;18.10;45.50;;;;;;5031757;28;20188;-67
2021/12/16 05:58:30;;;;;;;4.75;4.35;;;18.10;45.50;;;;;;5032131;28;20634;-67
2021/12/16 06:01:01;;;;;;;4.38;3.97;;;18.10;45.50;;;;;;5031490;28;20195;-67
2021/12/16 06:03:29;;;;;;;4.70;4.30;;;18.20;45.50;;;;;;5031660;28;20203;-67
2021/12/16 06:05:57;;;;;;;4.40;4.00;;;18.10;45.40;;;;;;5048346;28;20199;-67
2021/12/16 06:08:26;;;;;;;4.90;4.50;;;18.20;45.50;;;;;;5048347;28;20226;-67
2021/12/16 06:13:42;;;;;;;5.28;4.78;;;18.20;45.40;;;;;;5031683;28;20693;-67
2021/12/16 06:27:11;;;;;;;4.72;4.32;;;18.20;45.20;;;;;;5031365;28;20188;-67
2021/12/16 06:29:40;;;;;;;4.90;4.50;;;18.30;45.30;;;;;;5031332;28;20602;-67
2021/12/16 06:32:07;;;;;;;4.88;4.47;;;18.30;45.30;;;;;;5031278;28;20200;-67
2021/12/16 06:34:34;;;;;;;4.93;4.53;;;18.20;45.20;;;;;;5032666;28;20664;-67
2021/12/16 06:37:01;;;;;;;4.93;4.50;;;18.30;45.20;;;;;;5032666;28;20243;-67
2021/12/16 06:39:30;;;;;;;4.70;4.30;;;18.30;45.30;;;;;;5031259;28;20231;-67
2021/12/16 06:42:21;;;;;;;4.50;4.10;;;18.30;45.20;;;;;;5024450;28;20192;-67
2021/12/16 06:44:54;;;;;;;4.68;4.28;;;18.30;45.20;;;;;;5031414;28;20227;-67
2021/12/16 06:47:28;;;;;;;4.57;4.18;;;18.30;45.20;;;;;;5032554;28;20200;-67
2021/12/16 06:49:56;;;;;;;4.57;4.18;;;18.30;45.10;;;;;;5035360;28;20196;-67
2021/12/16 06:52:30;;;;;;;4.10;3.80;;;18.30;45.10;;;;;;5036238;28;20212;-67
2021/12/16 06:55:08;;;;;;;4.72;4.32;;;18.40;45.40;;;;;;5035328;28;20659;-67
2021/12/16 06:57:42;;;;;;;5.13;4.63;;;18.30;45.30;;;;;;5036442;28;20204;-67
2021/12/16 07:00:15;;;;;;;5.35;4.45;;;18.30;45.10;;;;;;5036475;28;20271;-67
2021/12/16 07:05:33;;;;;;;4.72;4.25;;;18.40;45.10;;;;;;5034948;28;20649;-67
2021/12/16 07:08:00;;;;;;;4.10;3.72;;;18.40;45.00;;;;;;5035945;28;20216;-67
2021/12/16 07:10:30;;;;;;;4.75;4.28;;;18.40;45.00;;;;;;5034794;28;20664;-67
2021/12/16 07:12:58;;;;;;;4.55;4.07;;;18.40;45.10;;;;;;5034516;28;20238;-67
2021/12/16 07:15:28;;;;;;;5.05;4.65;;;18.30;45.50;;;;;;5051600;28;20232;-67
2021/12/16 07:17:56;;;;;;;4.60;4.20;;;18.40;45.00;;;;;;5034691;28;20282;-67
2021/12/16 07:20:26;;;;;;;4.90;4.43;;;18.40;44.80;;;;;;5035918;28;20675;-67
2021/12/16 07:22:53;;;;;;;4.60;4.20;;;18.40;44.70;;;;;;5034648;28;20195;-67
2021/12/16 07:25:20;;;;;;;4.32;3.92;;;18.40;45.00;;;;;;5034718;28;20211;-67
2021/12/16 07:27:48;;;;;;;4.07;3.78;;;18.40;44.90;;;;;;5034547;28;20220;-67
2021/12/16 07:30:17;;;;;;;4.28;3.88;;;18.40;45.00;;;;;;5051433;28;20192;-67
2021/12/16 07:32:44;;;;;;;4.53;4.13;;;18.40;45.00;;;;;;5034652;28;20216;-67
2021/12/16 07:35:15;;;;;;;4.22;3.92;;;18.40;44.90;;;;;;5034608;28;20300;-67
2021/12/16 07:37:42;;;;;;;4.15;3.83;;;18.50;45.00;;;;;;5034374;28;20216;-67
2021/12/16 07:40:10;;;;;;;4.45;4.05;;;18.40;45.00;;;;;;5034380;28;20671;-67
2021/12/16 07:42:43;;;;;;;4.63;4.22;;;18.50;45.70;;;;;;5034218;28;20203;-67
2021/12/16 07:45:12;;;;;;;4.50;4.10;;;18.50;45.00;;;;;;5034460;28;20206;-67
2021/12/16 07:47:40;;;;;;;4.68;4.28;;;18.50;45.00;;;;;;5050858;28;20425;-67
2021/12/16 07:50:08;;;;;;;4.35;3.95;;;18.40;44.90;;;;;;5033875;28;20553;-67
2021/12/16 07:52:36;;;;;;;4.22;3.47;;;18.40;45.00;;;;;;5034043;28;20207;-67
2021/12/16 07:55:03;;;;;;;4.40;4.00;;;18.50;44.90;;;;;;5033983;28;20250;-67
2021/12/16 07:57:30;;;;;;;4.00;3.63;;;18.50;45.10;;;;;;5033656;28;20239;-67
2021/12/16 07:59:57;;;;;;;4.20;3.85;;;18.50;44.90;;;;;;5049173;28;20668;-67
2021/12/16 08:02:26;;;;;;;4.32;4.00;;;18.50;45.00;;;;;;5033861;28;20284;-67
2021/12/16 08:04:53;;;;;;;4.18;3.78;;;18.50;44.90;;;;;;5050309;28;20257;-67
2021/12/16 08:07:21;;;;;;;4.53;4.07;;;18.50;45.00;;;;;;5033614;28;20230;-67
2021/12/16 08:09:48;;;;;;;3.63;3.33;;;18.50;44.90;;;;;;5033977;28;20203;-67
2021/12/16 08:12:16;;;;;;;4.18;3.80;;;18.50;44.90;;;;;;5033867;28;20203;-67
2021/12/16 08:14:43;;;;;;;4.45;4.05;;;18.50;44.90;;;;;;5033674;28;20211;-67
2021/12/16 08:19:41;;;;;;;4.75;4.35;;;18.50;44.80;;;;;;5130006;22;20690;-67
2021/12/16 08:24:50;;;;;;;4.85;4.38;;;18.60;44.70;;;;;;5055333;22;20619;-65
2021/12/16 08:27:17;;;;;;;4.57;4.18;;;18.60;44.70;;;;;;5055065;28;20198;-63
2021/12/16 08:29:45;;;;;;;5.05;4.60;;;18.60;44.70;;;;;;5038571;28;20294;-68
2021/12/16 08:32:12;;;;;;;4.78;4.38;;;18.60;44.70;;;;;;5057950;28;20191;-68
2021/12/16 08:34:43;;;;;;;5.70;5.10;;;18.60;45.20;;;;;;5056090;28;20211;-67
2021/12/16 08:37:10;;;;;;;5.70;4.97;;;18.60;46.80;;;;;;5038138;28;20290;-67
2021/12/16 08:39:37;;;;;;;5.22;4.72;;;18.70;46.40;;;;;;5038299;28;20286;-67
2021/12/16 08:42:06;;;;;;;5.95;5.35;;;18.70;46.40;;;;;;5054316;28;20200;-67
2021/12/16 08:44:33;;;;;;;6.30;5.03;;;18.70;46.60;;;;;;5037853;28;20216;-67
2021/12/16 08:47:05;;;;;;;7.40;4.88;;;18.70;47.00;;;;;;5038054;28;20195;-67
2021/12/16 08:49:32;;;;;;;5.78;5.28;;;18.70;47.20;;;;;;5038480;28;20639;-67
2021/12/16 08:52:04;;;;;;;5.88;5.15;;;18.80;46.80;;;;;;5037329;28;20199;-66
2021/12/16 08:54:31;;;;;;;5.90;5.30;;;18.80;46.60;;;;;;5055278;28;20212;-67
2021/12/16 08:56:59;;;;;;;6.68;5.38;;;18.80;46.40;;;;;;5039014;28;20265;-67
2021/12/16 08:59:26;;;;;;;6.32;5.60;;;18.80;46.10;;;;;;5038221;28;20257;-67
2021/12/16 09:01:55;;;;;;;5.47;4.97;;;18.80;45.80;;;;;;5054754;28;20199;-67
2021/12/16 09:04:23;;;;;;;6.20;5.07;;;18.90;46.30;;;;;;5055600;28;20219;-67
2021/12/16 09:06:51;;;;;;;6.72;6.13;;;18.90;46.00;;;;;;5037310;28;20214;-67
2021/12/16 09:09:20;;;;;;;5.85;5.35;;;18.90;46.30;;;;;;5055117;28;20659;-68
2021/12/16 09:12:02;;;;;;;5.72;5.00;;;18.90;46.20;;;;;;5054281;28;20261;-66
2021/12/16 09:14:30;;;;;;;8.80;5.03;;;18.90;46.20;;;;;;5036550;28;20230;-66
2021/12/16 09:16:57;;;;;;;6.10;5.30;;;18.90;46.00;;;;;;5054419;28;20655;-69
2021/12/16 09:19:24;;;;;;;6.13;5.53;;;18.90;46.00;;;;;;5036161;28;20200;-65
2021/12/16 09:21:51;;;;;;;5.93;5.15;;;18.90;45.80;;;;;;5052827;28;20644;-68
2021/12/16 09:24:20;;;;;;;5.68;5.13;;;18.90;45.80;;;;;;5035998;28;20414;-68
2021/12/16 09:26:47;;;;;;;6.00;5.38;;;18.90;45.60;;;;;;5036436;28;20198;-68
2021/12/16 09:29:14;;;;;;;5.55;4.75;;;19.00;45.40;;;;;;5054083;28;20191;-65
2021/12/16 09:31:41;;;;;;;7.72;5.03;;;19.00;45.80;;;;;;5035987;28;20191;-68
2021/12/16 09:34:09;;;;;;;6.00;5.40;;;19.00;45.10;;;;;;5053728;28;20215;-67
2021/12/16 09:36:37;;;;;;;5.50;5.00;;;19.00;45.00;;;;;;5052763;28;20195;-64
2021/12/16 09:39:04;;;;;;;5.97;5.40;;;19.00;45.00;;;;;;5053715;28;20206;-64
2021/12/16 09:41:33;;;;;;;6.03;4.63;;;19.00;45.00;;;;;;5052145;28;20206;-68
2021/12/16 09:44:00;;;;;;;5.28;4.75;;;19.00;45.00;;;;;;5035679;28;20211;-68
2021/12/16 09:46:29;;;;;;;6.43;5.70;;;19.00;44.90;;;;;;5035748;28;20667;-65
2021/12/16 09:48:57;;;;;;;6.05;5.35;;;19.00;44.80;;;;;;5036093;28;20203;-65
2021/12/16 09:51:26;;;;;;;5.50;4.97;;;19.00;44.80;;;;;;5035419;28;20198;-67
2021/12/16 09:53:54;;;;;;;5.80;5.30;;;19.00;45.00;;;;;;5053458;28;20269;-66
2021/12/16 09:56:22;;;;;;;5.90;5.40;;;19.10;45.10;;;;;;5035570;28;20202;-66
2021/12/16 09:58:52;;;;;;;5.43;5.00;;;19.10;45.00;;;;;;5035381;28;20195;-64
2021/12/16 10:01:20;;;;;;;5.22;4.72;;;19.00;44.70;;;;;;5053014;28;20210;-62
2021/12/16 10:03:48;;;;;;;5.68;4.57;;;19.10;44.50;;;;;;5053212;28;20203;-64
2021/12/16 10:06:16;;;;;;;5.68;5.18;;;19.10;44.40;;;;;;5035516;28;20639;-65
2021/12/16 10:08:43;;;;;;;5.57;4.68;;;19.10;44.60;;;;;;5053495;28;20219;-66
2021/12/16 10:11:11;;;;;;;5.22;4.78;;;19.10;44.70;;;;;;5035877;28;20199;-64
2021/12/16 10:13:44;;;;;;;5.38;4.88;;;19.10;44.70;;;;;;5035814;28;20281;-63
2021/12/16 10:18:58;;;;;;;6.45;5.40;;;19.10;44.50;;;;;;5035555;28;20191;-67
2021/12/16 10:21:25;;;;;;;4.82;4.43;;;19.10;44.40;;;;;;5035343;28;20199;-66
2021/12/16 10:23:52;;;;;;;5.55;5.05;;;19.10;45.20;;;;;;5055913;28;20230;-65
2021/12/16 10:26:20;;;;;;;5.45;4.90;;;19.10;44.40;;;;;;5057661;28;20198;-68
2021/12/16 10:28:48;;;;;;;5.88;5.25;;;19.10;44.30;;;;;;5039942;28;20672;-66
2021/12/16 10:31:19;;;;;;;6.45;5.57;;;19.10;44.50;;;;;;5057066;28;20187;-66
2021/12/16 10:33:48;;;;;;;5.88;5.28;;;19.20;44.40;;;;;;5038727;28;20226;-66
2021/12/16 10:36:17;;;;;;;5.82;4.65;;;19.20;44.30;;;;;;5039123;28;20222;-65
2021/12/16 10:38:45;;;;;;;6.45;5.05;;;19.10;44.10;;;;;;5038911;28;20597;-64
2021/12/16 10:41:16;;;;;;;5.00;4.50;;;19.20;44.60;;;;;;5038676;28;20295;-67
2021/12/16 10:43:44;;;;;;;5.32;4.50;;;19.20;44.70;;;;;;5038720;28;20273;-66
2021/12/16 10:46:12;;;;;;;5.20;4.75;;;19.20;44.30;;;;;;5056755;28;20191;-65
2021/12/16 10:48:41;;;;;;;5.63;4.97;;;19.20;44.50;;;;;;5038490;28;20196;-66
2021/12/16 10:51:21;;;;;;;5.60;5.10;;;19.20;44.20;;;;;;5055286;28;20199;-66
2021/12/16 10:54:09;;;;;;;6.50;4.68;;;19.20;44.20;;;;;;5038402;28;20218;-63
2021/12/16 10:56:44;;;;;;;5.38;4.82;;;19.20;44.30;;;;;;5054930;28;20294;-67
2021/12/16 10:59:14;;;;;;;5.10;4.63;;;19.20;44.00;;;;;;5038803;28;20195;-66
2021/12/16 11:01:50;;;;;;;5.47;4.97;;;19.30;44.20;;;;;;5038749;28;20199;-66
2021/12/16 11:04:22;;;;;;;5.30;4.80;;;19.20;44.60;;;;;;5038484;28;20214;-65
2021/12/16 11:06:51;;;;;;;5.47;5.03;;;19.30;43.90;;;;;;5038240;28;20282;-66
2021/12/16 11:09:29;;;;;;;5.20;4.70;;;19.30;44.00;;;;;;5038264;28;20204;-65
2021/12/16 11:12:38;;;;;;;6.82;4.35;;;19.20;43.90;;;;;;5038457;28;20663;-65
2021/12/16 11:15:14;;;;;;;6.18;4.72;;;19.20;43.90;;;;;;5032877;28;20234;-65
2021/12/16 11:17:43;;;;;;;5.53;4.43;;;19.20;43.80;;;;;;5038191;28;20195;-67
2021/12/16 11:20:18;;;;;;;6.20;4.95;;;19.20;44.00;;;;;;5055822;28;20195;-67
2021/12/16 11:22:46;;;;;;;5.15;4.65;;;19.20;44.00;;;;;;5038182;28;20223;-65
2021/12/16 11:25:19;;;;;;;5.40;4.90;;;19.20;43.90;;;;;;5038224;28;20186;-67
2021/12/16 11:27:49;;;;;;;4.85;4.35;;;19.20;43.90;;;;;;5038031;28;20200;-65
2021/12/16 11:30:42;;;;;;;4.82;4.40;;;19.20;43.80;;;;;;5038082;28;20184;-64
2021/12/16 11:33:21;;;;;;;5.10;4.60;;;19.20;43.80;;;;;;5037636;28;20215;-67
2021/12/16 11:35:56;;;;;;;5.15;4.63;;;19.20;43.80;;;;;;5037996;28;20597;-67
2021/12/16 11:38:28;;;;;;;5.15;4.20;;;19.20;43.80;;;;;;5055628;28;20249;-64
2021/12/16 11:41:10;;;;;;;4.70;4.30;;;19.20;43.80;;;;;;5038023;28;20549;-65
2021/12/16 11:44:07;;;;;;;4.93;4.53;;;19.20;43.90;;;;;;5037739;28;20728;-65
2021/12/16 11:46:37;;;;;;;5.15;4.65;;;19.20;43.70;;;;;;5037823;28;20693;-67
2021/12/16 11:49:06;;;;;;;5.13;4.63;;;19.30;44.50;;;;;;5037720;28;20196;-65
2021/12/16 11:51:36;;;;;;;4.75;4.35;;;19.30;43.70;;;;;;5037685;28;20195;-63
2021/12/16 11:54:06;;;;;;;4.65;4.25;;;19.30;43.70;;;;;;5037457;28;20224;-63
2021/12/16 11:56:39;;;;;;;4.40;4.00;;;19.30;43.80;;;;;;5055222;28;20253;-65
2021/12/16 11:59:07;;;;;;;4.60;4.20;;;19.30;43.70;;;;;;5055647;28;20184;-65
2021/12/16 12:01:35;;;;;;;5.05;4.55;;;19.30;43.80;;;;;;5053917;28;20192;-64
2021/12/16 12:04:05;;;;;;;4.70;4.30;;;19.30;43.70;;;;;;5055272;28;20203;-67
2021/12/16 12:06:34;;;;;;;5.60;5.07;;;19.30;43.80;;;;;;5053859;28;20203;-65
2021/12/16 12:09:01;;;;;;;4.97;4.57;;;19.30;43.70;;;;;;5037259;28;20215;-67
2021/12/16 12:11:29;;;;;;;4.95;4.45;;;19.30;43.70;;;;;;5037640;28;20210;-65
2021/12/16 12:13:59;;;;;;;5.20;4.70;;;19.30;43.70;;;;;;5037123;28;20582;-63
2021/12/16 12:16:30;;;;;;;4.85;4.38;;;19.30;43.60;;;;;;5037311;28;20294;-63
2021/12/16 12:18:59;;;;;;;4.68;4.28;;;19.30;43.70;;;;;;5037004;28;20218;-63
2021/12/16 12:21:29;;;;;;;5.18;4.22;;;19.30;43.60;;;;;;5055338;28;20620;-63
2021/12/16 12:24:00;;;;;;;4.30;3.90;;;19.30;43.70;;;;;;5037115;28;20230;-64
2021/12/16 12:26:29;;;;;;;4.40;4.00;;;19.30;43.60;;;;;;5037219;28;20196;-64
2021/12/16 12:28:59;;;;;;;5.20;4.70;;;19.40;43.70;;;;;;5037152;28;20207;-67
2021/12/16 12:31:28;;;;;;;4.57;4.18;;;19.40;43.60;;;;;;5037104;28;20289;-68
2021/12/16 12:33:56;;;;;;;4.50;4.10;;;19.40;43.50;;;;;;5053738;28;20229;-66
2021/12/16 12:36:23;;;;;;;4.60;4.20;;;19.40;43.50;;;;;;5037218;28;20234;-64
2021/12/16 12:38:50;;;;;;;4.55;4.15;;;19.40;43.40;;;;;;5053777;28;20252;-65
2021/12/16 12:41:19;;;;;;;4.43;4.03;;;19.40;43.40;;;;;;5037140;28;20206;-67
2021/12/16 12:43:46;;;;;;;4.72;4.32;;;19.40;43.50;;;;;;5036867;28;20648;-66
2021/12/16 12:46:13;;;;;;;4.72;4.32;;;19.40;43.50;;;;;;5054591;28;20191;-66
2021/12/16 12:48:41;;;;;;;4.00;3.70;;;19.50;43.50;;;;;;5053716;28;20195;-65
2021/12/16 12:51:08;;;;;;;4.10;3.80;;;19.50;43.30;;;;;;5054271;28;20340;-67
2021/12/16 12:53:37;;;;;;;5.32;4.47;;;19.40;43.20;;;;;;5053605;28;20215;-67
2021/12/16 12:56:13;;;;;;;4.50;4.10;;;19.40;43.30;;;;;;5038525;28;20222;-65
2021/12/16 12:58:51;;;;;;;4.72;4.32;;;19.50;43.20;;;;;;5056146;28;20627;-67
2021/12/16 13:01:18;;;;;;;4.40;4.00;;;19.50;43.30;;;;;;5037501;28;20195;-65
2021/12/16 13:03:46;;;;;;;5.03;4.60;;;19.50;43.30;;;;;;5056005;28;20269;-64
2021/12/16 13:06:14;;;;;;;4.28;3.97;;;19.50;43.10;;;;;;5039617;28;20206;-67
2021/12/16 13:08:43;;;;;;;4.80;4.40;;;19.50;43.20;;;;;;5058511;28;20202;-67
2021/12/16 13:11:11;;;;;;;5.10;4.40;;;19.50;43.10;;;;;;5042950;28;20196;-67
2021/12/16 13:13:45;;;;;;;4.07;3.72;;;19.50;43.10;;;;;;5039329;28;20234;-66
2021/12/16 13:16:37;;;;;;;4.60;4.20;;;19.50;43.30;;;;;;5038495;28;20589;-68
2021/12/16 13:25:29;;;;;;;4.35;3.95;;;19.50;43.10;;;;;;5037733;28;20191;-64
2021/12/16 13:27:56;;;;;;;5.05;4.45;;;19.50;43.10;;;;;;5037240;28;20191;-64
2021/12/16 13:30:30;;;;;;;4.70;4.30;;;19.50;43.10;;;;;;5056018;28;20203;-65
2021/12/16 13:33:15;;;;;;;4.93;4.45;;;19.50;43.20;;;;;;5036674;28;20215;-66
2021/12/16 13:35:48;;;;;;;5.60;4.35;;;19.50;43.10;;;;;;5052664;28;20595;-67
2021/12/16 13:38:15;;;;;;;5.03;4.53;;;19.50;43.30;;;;;;5035898;28;20195;-67
2021/12/16 13:40:43;;;;;;;4.75;4.25;;;19.50;43.20;;;;;;5035698;28;20195;-67
2021/12/16 13:43:15;;;;;;;3.78;3.47;;;19.50;43.20;;;;;;5036057;28;20223;-66
2021/12/16 13:45:48;;;;;;;5.22;4.03;;;19.50;43.20;;;;;;5052478;28;20202;-66
2021/12/16 13:48:40;;;;;;;4.07;3.78;;;19.50;43.10;;;;;;5053505;28;20604;-65
2021/12/16 14:00:24;;;;;;;4.30;4.00;;;19.50;43.10;;;;;;5035606;28;20203;-67
2021/12/16 14:03:05;;;;;;;5.07;4.00;;;19.50;43.10;;;;;;5035088;28;20323;-67
2021/12/16 14:05:44;;;;;;;4.10;3.80;;;19.50;43.10;;;;;;5035497;28;20187;-64
2021/12/16 14:08:13;;;;;;;5.32;4.20;;;19.50;43.10;;;;;;5035400;28;20294;-67
2021/12/16 14:10:51;;;;;;;4.15;3.63;;;19.50;43.10;;;;;;5035462;28;20540;-67
2021/12/16 14:16:29;;;;;;;4.82;4.32;;;19.50;43.10;;;;;;5052979;28;20210;-65
2021/12/16 14:24:59;;;;;;;4.20;3.80;;;19.60;43.20;;;;;;5064001;23;20305;-68
2021/12/16 14:36:01;;;;;;;4.50;4.10;;;19.60;43.10;;;;;;5054966;28;20210;-69
2021/12/16 14:38:54;;;;;;;5.10;3.70;;;19.50;43.10;;;;;;5055399;28;20285;-68
2021/12/16 14:41:46;;;;;;;4.72;3.85;;;19.50;43.10;;;;;;5054960;28;20294;-69
2021/12/16 14:47:14;;;;;;;4.82;4.43;;;19.50;43.10;;;;;;5054096;28;20324;-68
2021/12/16 14:49:43;;;;;;;4.20;3.90;;;19.50;43.10;;;;;;5055044;28;20191;-69
2021/12/16 14:52:14;;;;;;;4.53;4.13;;;19.50;43.20;;;;;;5054932;28;20252;-68
2021/12/16 14:54:49;;;;;;;3.85;3.38;;;19.50;43.20;;;;;;5055267;28;20223;-69
2021/12/16 14:57:21;;;;;;;4.25;3.95;;;19.50;43.30;;;;;;5054964;28;20289;-68
2021/12/16 14:59:48;;;;;;;5.28;3.88;;;19.50;43.40;;;;;;5055242;28;20201;-68
2021/12/16 15:02:16;;;;;;;4.18;3.88;;;19.50;43.20;;;;;;5073029;28;20197;-69
2021/12/16 15:04:44;;;;;;;4.07;3.67;;;19.50;43.20;;;;;;5072913;28;20215;-69
2021/12/16 15:07:12;;;;;;;4.20;3.80;;;19.50;43.20;;;;;;5055470;28;20312;-68
2021/12/16 15:09:41;;;;;;;4.97;4.13;;;19.50;43.10;;;;;;5076463;28;20662;-68
2021/12/16 15:12:15;;;;;;;4.15;3.78;;;19.50;43.10;;;;;;5276305;22;20235;-69
2021/12/16 15:14:59;;;;;;;3.83;3.53;;;19.50;43.10;;;;;;5038894;28;20222;-70
2021/12/16 15:17:49;;;;;;;3.70;3.40;;;19.50;43.20;;;;;;5038928;28;20195;-69
2021/12/16 15:32:49;;;;;;;4.40;3.95;;;19.40;43.20;;;;;;5039995;28;20263;-70
2021/12/16 15:37:54;;;;;;;4.15;3.75;;;19.40;43.20;;;;;;5039258;28;20233;-69
2021/12/16 15:40:39;;;;;;;4.10;3.70;;;19.40;43.40;;;;;;5057128;28;20186;-69
2021/12/16 15:43:07;;;;;;;4.13;3.67;;;19.40;43.40;;;;;;5038900;28;20195;-69
2021/12/16 15:45:38;;;;;;;3.97;3.67;;;19.40;43.30;;;;;;5039549;28;20214;-69
2021/12/16 15:48:06;;;;;;;4.40;3.92;;;19.40;43.50;;;;;;5039222;28;20202;-69
2021/12/16 15:50:35;;;;;;;3.60;3.30;;;19.30;43.30;;;;;;5057057;28;20195;-69
2021/12/16 15:53:03;;;;;;;3.75;3.40;;;19.30;43.40;;;;;;5038566;28;20209;-69
2021/12/16 15:55:33;;;;;;;3.88;3.58;;;19.30;43.30;;;;;;5038486;28;20627;-71
2021/12/16 15:58:02;;;;;;;4.57;4.10;;;19.30;43.30;;;;;;5038095;28;20738;-69